sensor_id;sensor_type;location;lat;lon;timestamp;P1;durP1;ratioP1;P2;durP2;ratioP2
10116;SDS011;5098;48.792;9.012;2023-04-19T00:00:41;14.60;;;13.10;;
10116;SDS011;5098;48.792;9.012;2023-04-19T00:03:07;16.33;;;13.23;;
10116;SDS011;5098;48.792;9.012;2023-04-19T00:05:34;16.20;;;12.93;;
10116;SDS011;5098;48.792;9.012;2023-04-19T00:08:02;15.20;;;13.00;;
10116;SDS011;5098;48.792;9.012;2023-04-19T00:10:28;15.00;;;13.50;;
10116;SDS011;5098;48.792;9.012;2023-04-19T00:12:54;15.97;;;13.77;;
10116;SDS011;5098;48.792;9.012;2023-04-19T00:15:20;15.20;;;13.07;;
10116;SDS011;5098;48.792;9.012;2023-04-19T00:17:46;18.80;;;13.93;;
10116;SDS011;5098;48.792;9.012;2023-04-19T00:20:12;14.25;;;12.85;;
10116;SDS011;5098;48.792;9.012;2023-04-19T00:22:38;14.67;;;13.17;;
10116;SDS011;5098;48.792;9.012;2023-04-19T00:25:05;15.80;;;13.30;;
10116;SDS011;5098;48.792;9.012;2023-04-19T00:27:31;16.00;;;13.13;;
10116;SDS011;5098;48.792;9.012;2023-04-19T00:29:57;16.20;;;13.60;;
10116;SDS011;5098;48.792;9.012;2023-04-19T00:32:23;16.87;;;13.53;;
10116;SDS011;5098;48.792;9.012;2023-04-19T00:34:50;15.13;;;12.50;;
10116;SDS011;5098;48.792;9.012;2023-04-19T00:37:16;15.27;;;13.53;;
10116;SDS011;5098;48.792;9.012;2023-04-19T00:39:42;16.03;;;14.27;;
10116;SDS011;5098;48.792;9.012;2023-04-19T00:42:08;15.60;;;14.10;;
10116;SDS011;5098;48.792;9.012;2023-04-19T00:44:34;15.50;;;13.50;;
10116;SDS011;5098;48.792;9.012;2023-04-19T00:47:00;16.80;;;14.23;;
10116;SDS011;5098;48.792;9.012;2023-04-19T00:49:26;15.17;;;13.57;;
10116;SDS011;5098;48.792;9.012;2023-04-19T00:51:52;15.00;;;12.20;;
10116;SDS011;5098;48.792;9.012;2023-04-19T00:54:19;15.90;;;13.23;;
10116;SDS011;5098;48.792;9.012;2023-04-19T00:56:45;14.70;;;13.10;;
10116;SDS011;5098;48.792;9.012;2023-04-19T00:59:11;16.90;;;13.83;;
10116;SDS011;5098;48.792;9.012;2023-04-19T01:01:39;19.10;;;14.00;;
10116;SDS011;5098;48.792;9.012;2023-04-19T01:04:05;14.63;;;13.17;;
10116;SDS011;5098;48.792;9.012;2023-04-19T01:06:32;22.93;;;14.70;;
10116;SDS011;5098;48.792;9.012;2023-04-19T01:08:59;17.83;;;13.50;;
10116;SDS011;5098;48.792;9.012;2023-04-19T01:11:25;15.77;;;13.90;;
10116;SDS011;5098;48.792;9.012;2023-04-19T01:13:53;18.73;;;14.00;;
10116;SDS011;5098;48.792;9.012;2023-04-19T01:16:19;14.60;;;12.83;;
10116;SDS011;5098;48.792;9.012;2023-04-19T01:18:46;17.70;;;13.60;;
10116;SDS011;5098;48.792;9.012;2023-04-19T01:21:12;19.40;;;15.20;;
10116;SDS011;5098;48.792;9.012;2023-04-19T01:23:38;21.00;;;15.37;;
10116;SDS011;5098;48.792;9.012;2023-04-19T01:26:04;17.70;;;14.30;;
10116;SDS011;5098;48.792;9.012;2023-04-19T01:28:30;16.47;;;12.80;;
10116;SDS011;5098;48.792;9.012;2023-04-19T01:30:56;16.13;;;13.47;;
10116;SDS011;5098;48.792;9.012;2023-04-19T01:33:23;17.67;;;13.80;;
10116;SDS011;5098;48.792;9.012;2023-04-19T01:35:49;18.00;;;14.30;;
10116;SDS011;5098;48.792;9.012;2023-04-19T01:38:15;17.87;;;14.00;;
10116;SDS011;5098;48.792;9.012;2023-04-19T01:40:41;15.90;;;13.87;;
10116;SDS011;5098;48.792;9.012;2023-04-19T01:43:09;17.83;;;14.60;;
10116;SDS011;5098;48.792;9.012;2023-04-19T01:45:36;17.30;;;14.30;;
10116;SDS011;5098;48.792;9.012;2023-04-19T01:48:02;17.40;;;14.20;;
10116;SDS011;5098;48.792;9.012;2023-04-19T01:50:31;17.02;;;14.27;;
10116;SDS011;5098;48.792;9.012;2023-04-19T01:52:57;15.07;;;13.37;;
10116;SDS011;5098;48.792;9.012;2023-04-19T01:55:24;17.40;;;15.07;;
10116;SDS011;5098;48.792;9.012;2023-04-19T01:57:50;16.80;;;14.30;;
10116;SDS011;5098;48.792;9.012;2023-04-19T02:00:20;17.70;;;14.70;;
10116;SDS011;5098;48.792;9.012;2023-04-19T02:02:46;17.50;;;15.60;;
10116;SDS011;5098;48.792;9.012;2023-04-19T02:05:12;15.82;;;14.10;;
10116;SDS011;5098;48.792;9.012;2023-04-19T02:07:38;23.00;;;15.63;;
10116;SDS011;5098;48.792;9.012;2023-04-19T02:10:04;16.60;;;14.80;;
10116;SDS011;5098;48.792;9.012;2023-04-19T02:12:31;23.90;;;14.00;;
10116;SDS011;5098;48.792;9.012;2023-04-19T02:14:58;18.17;;;15.53;;
10116;SDS011;5098;48.792;9.012;2023-04-19T02:17:26;18.00;;;14.13;;
10116;SDS011;5098;48.792;9.012;2023-04-19T02:19:52;23.63;;;16.83;;
10116;SDS011;5098;48.792;9.012;2023-04-19T02:22:18;18.27;;;15.17;;
10116;SDS011;5098;48.792;9.012;2023-04-19T02:24:44;20.13;;;15.63;;
10116;SDS011;5098;48.792;9.012;2023-04-19T02:27:11;18.93;;;15.80;;
10116;SDS011;5098;48.792;9.012;2023-04-19T02:29:37;19.03;;;14.27;;
10116;SDS011;5098;48.792;9.012;2023-04-19T02:32:03;18.15;;;14.40;;
10116;SDS011;5098;48.792;9.012;2023-04-19T02:34:31;17.87;;;14.77;;
10116;SDS011;5098;48.792;9.012;2023-04-19T02:36:57;19.40;;;14.83;;
10116;SDS011;5098;48.792;9.012;2023-04-19T02:39:23;21.30;;;15.60;;
10116;SDS011;5098;48.792;9.012;2023-04-19T02:41:49;20.00;;;15.13;;
10116;SDS011;5098;48.792;9.012;2023-04-19T02:44:15;25.00;;;15.45;;
10116;SDS011;5098;48.792;9.012;2023-04-19T02:46:46;18.70;;;15.23;;
10116;SDS011;5098;48.792;9.012;2023-04-19T02:49:13;18.40;;;15.50;;
10116;SDS011;5098;48.792;9.012;2023-04-19T02:51:39;18.40;;;15.73;;
10116;SDS011;5098;48.792;9.012;2023-04-19T02:54:05;20.40;;;15.60;;
10116;SDS011;5098;48.792;9.012;2023-04-19T02:56:31;16.87;;;14.80;;
10116;SDS011;5098;48.792;9.012;2023-04-19T02:59:00;18.17;;;15.53;;
10116;SDS011;5098;48.792;9.012;2023-04-19T03:01:27;19.77;;;16.10;;
10116;SDS011;5098;48.792;9.012;2023-04-19T03:03:53;19.00;;;16.07;;
10116;SDS011;5098;48.792;9.012;2023-04-19T03:06:19;18.77;;;15.93;;
10116;SDS011;5098;48.792;9.012;2023-04-19T03:08:45;18.30;;;15.10;;
10116;SDS011;5098;48.792;9.012;2023-04-19T03:11:11;18.92;;;15.57;;
10116;SDS011;5098;48.792;9.012;2023-04-19T03:13:37;20.33;;;17.07;;
10116;SDS011;5098;48.792;9.012;2023-04-19T03:16:05;21.10;;;16.50;;
10116;SDS011;5098;48.792;9.012;2023-04-19T03:18:31;18.30;;;14.93;;
10116;SDS011;5098;48.792;9.012;2023-04-19T03:20:57;19.45;;;15.77;;
10116;SDS011;5098;48.792;9.012;2023-04-19T03:23:24;20.45;;;15.63;;
10116;SDS011;5098;48.792;9.012;2023-04-19T03:25:51;18.30;;;15.90;;
10116;SDS011;5098;48.792;9.012;2023-04-19T03:28:17;21.23;;;16.73;;
10116;SDS011;5098;48.792;9.012;2023-04-19T03:30:43;21.42;;;15.57;;
10116;SDS011;5098;48.792;9.012;2023-04-19T03:33:11;18.37;;;14.70;;
10116;SDS011;5098;48.792;9.012;2023-04-19T03:35:37;20.63;;;16.63;;
10116;SDS011;5098;48.792;9.012;2023-04-19T03:38:03;20.27;;;16.30;;
10116;SDS011;5098;48.792;9.012;2023-04-19T03:40:29;18.43;;;16.17;;
10116;SDS011;5098;48.792;9.012;2023-04-19T03:42:57;22.43;;;16.03;;
10116;SDS011;5098;48.792;9.012;2023-04-19T03:45:23;19.60;;;15.40;;
10116;SDS011;5098;48.792;9.012;2023-04-19T03:47:50;17.17;;;15.13;;
10116;SDS011;5098;48.792;9.012;2023-04-19T03:50:16;19.60;;;15.10;;
10116;SDS011;5098;48.792;9.012;2023-04-19T03:52:42;17.20;;;15.40;;
10116;SDS011;5098;48.792;9.012;2023-04-19T03:55:08;22.60;;;17.30;;
10116;SDS011;5098;48.792;9.012;2023-04-19T03:57:36;21.03;;;17.30;;
10116;SDS011;5098;48.792;9.012;2023-04-19T04:00:03;19.13;;;16.67;;
10116;SDS011;5098;48.792;9.012;2023-04-19T04:02:32;20.77;;;15.30;;
10116;SDS011;5098;48.792;9.012;2023-04-19T04:04:58;18.27;;;16.20;;
10116;SDS011;5098;48.792;9.012;2023-04-19T04:07:24;20.33;;;17.52;;
10116;SDS011;5098;48.792;9.012;2023-04-19T04:09:51;21.35;;;17.23;;
10116;SDS011;5098;48.792;9.012;2023-04-19T04:12:17;19.17;;;16.45;;
10116;SDS011;5098;48.792;9.012;2023-04-19T04:14:43;19.63;;;15.65;;
10116;SDS011;5098;48.792;9.012;2023-04-19T04:17:09;20.20;;;15.50;;
10116;SDS011;5098;48.792;9.012;2023-04-19T04:19:35;19.90;;;17.48;;
10116;SDS011;5098;48.792;9.012;2023-04-19T04:22:02;24.70;;;16.75;;
10116;SDS011;5098;48.792;9.012;2023-04-19T04:24:30;22.27;;;17.70;;
10116;SDS011;5098;48.792;9.012;2023-04-19T04:26:57;21.42;;;17.60;;
10116;SDS011;5098;48.792;9.012;2023-04-19T04:29:24;21.00;;;17.23;;
10116;SDS011;5098;48.792;9.012;2023-04-19T04:31:50;19.17;;;16.35;;
10116;SDS011;5098;48.792;9.012;2023-04-19T04:34:16;19.67;;;16.97;;
10116;SDS011;5098;48.792;9.012;2023-04-19T04:36:42;20.23;;;16.65;;
10116;SDS011;5098;48.792;9.012;2023-04-19T04:39:09;21.90;;;16.43;;
10116;SDS011;5098;48.792;9.012;2023-04-19T04:41:36;20.47;;;17.17;;
10116;SDS011;5098;48.792;9.012;2023-04-19T04:44:06;20.35;;;17.42;;
10116;SDS011;5098;48.792;9.012;2023-04-19T04:46:33;19.05;;;17.05;;
10116;SDS011;5098;48.792;9.012;2023-04-19T04:48:59;21.90;;;15.90;;
10116;SDS011;5098;48.792;9.012;2023-04-19T04:51:25;17.30;;;14.95;;
10116;SDS011;5098;48.792;9.012;2023-04-19T04:53:51;22.33;;;17.55;;
10116;SDS011;5098;48.792;9.012;2023-04-19T04:56:17;19.90;;;16.33;;
10116;SDS011;5098;48.792;9.012;2023-04-19T04:58:44;19.40;;;16.40;;
10116;SDS011;5098;48.792;9.012;2023-04-19T05:01:10;20.55;;;16.90;;
10116;SDS011;5098;48.792;9.012;2023-04-19T05:03:36;22.33;;;17.60;;
10116;SDS011;5098;48.792;9.012;2023-04-19T05:06:02;20.25;;;16.58;;
10116;SDS011;5098;48.792;9.012;2023-04-19T05:08:28;21.30;;;17.20;;
10116;SDS011;5098;48.792;9.012;2023-04-19T05:10:54;18.80;;;16.40;;
10116;SDS011;5098;48.792;9.012;2023-04-19T05:13:20;20.40;;;16.10;;
10116;SDS011;5098;48.792;9.012;2023-04-19T05:15:46;19.65;;;16.38;;
10116;SDS011;5098;48.792;9.012;2023-04-19T05:18:12;20.50;;;16.90;;
10116;SDS011;5098;48.792;9.012;2023-04-19T05:20:38;19.15;;;15.20;;
10116;SDS011;5098;48.792;9.012;2023-04-19T05:23:04;18.27;;;15.40;;
10116;SDS011;5098;48.792;9.012;2023-04-19T05:25:32;19.67;;;15.20;;
10116;SDS011;5098;48.792;9.012;2023-04-19T05:27:58;18.90;;;14.40;;
10116;SDS011;5098;48.792;9.012;2023-04-19T05:30:24;21.70;;;15.75;;
10116;SDS011;5098;48.792;9.012;2023-04-19T05:32:50;20.98;;;16.10;;
10116;SDS011;5098;48.792;9.012;2023-04-19T05:35:16;17.35;;;14.93;;
10116;SDS011;5098;48.792;9.012;2023-04-19T05:37:43;18.42;;;14.25;;
10116;SDS011;5098;48.792;9.012;2023-04-19T05:40:09;18.75;;;15.90;;
10116;SDS011;5098;48.792;9.012;2023-04-19T05:42:37;20.00;;;15.35;;
10116;SDS011;5098;48.792;9.012;2023-04-19T05:45:03;19.10;;;14.23;;
10116;SDS011;5098;48.792;9.012;2023-04-19T05:47:31;18.43;;;15.13;;
10116;SDS011;5098;48.792;9.012;2023-04-19T05:49:57;17.92;;;14.88;;
10116;SDS011;5098;48.792;9.012;2023-04-19T05:52:23;18.60;;;14.50;;
10116;SDS011;5098;48.792;9.012;2023-04-19T05:54:49;18.37;;;15.53;;
10116;SDS011;5098;48.792;9.012;2023-04-19T05:57:15;18.90;;;16.17;;
10116;SDS011;5098;48.792;9.012;2023-04-19T05:59:41;19.42;;;16.48;;
10116;SDS011;5098;48.792;9.012;2023-04-19T06:02:08;17.27;;;15.48;;
10116;SDS011;5098;48.792;9.012;2023-04-19T06:04:34;18.47;;;15.03;;
10116;SDS011;5098;48.792;9.012;2023-04-19T06:07:00;18.27;;;14.60;;
10116;SDS011;5098;48.792;9.012;2023-04-19T06:09:26;18.07;;;14.80;;
10116;SDS011;5098;48.792;9.012;2023-04-19T06:11:52;17.67;;;14.97;;
10116;SDS011;5098;48.792;9.012;2023-04-19T06:14:19;23.40;;;16.63;;
10116;SDS011;5098;48.792;9.012;2023-04-19T06:16:45;20.70;;;13.77;;
10116;SDS011;5098;48.792;9.012;2023-04-19T06:19:11;18.10;;;14.80;;
10116;SDS011;5098;48.792;9.012;2023-04-19T06:21:37;18.40;;;15.60;;
10116;SDS011;5098;48.792;9.012;2023-04-19T06:24:06;18.07;;;14.53;;
10116;SDS011;5098;48.792;9.012;2023-04-19T06:26:32;19.73;;;13.90;;
10116;SDS011;5098;48.792;9.012;2023-04-19T06:28:58;16.65;;;14.40;;
10116;SDS011;5098;48.792;9.012;2023-04-19T06:31:25;16.70;;;13.85;;
10116;SDS011;5098;48.792;9.012;2023-04-19T06:33:51;25.20;;;15.80;;
10116;SDS011;5098;48.792;9.012;2023-04-19T06:36:17;15.17;;;13.53;;
10116;SDS011;5098;48.792;9.012;2023-04-19T06:38:43;16.50;;;14.57;;
10116;SDS011;5098;48.792;9.012;2023-04-19T06:41:10;17.97;;;14.53;;
10116;SDS011;5098;48.792;9.012;2023-04-19T06:43:36;15.80;;;13.77;;
10116;SDS011;5098;48.792;9.012;2023-04-19T06:46:05;16.10;;;13.70;;
10116;SDS011;5098;48.792;9.012;2023-04-19T06:48:32;19.37;;;13.20;;
10116;SDS011;5098;48.792;9.012;2023-04-19T06:50:58;16.20;;;14.23;;
10116;SDS011;5098;48.792;9.012;2023-04-19T06:53:24;20.23;;;14.87;;
10116;SDS011;5098;48.792;9.012;2023-04-19T06:55:57;17.93;;;13.17;;
10116;SDS011;5098;48.792;9.012;2023-04-19T06:58:27;17.53;;;13.47;;
10116;SDS011;5098;48.792;9.012;2023-04-19T07:00:53;16.63;;;13.27;;
10116;SDS011;5098;48.792;9.012;2023-04-19T07:03:20;15.20;;;13.10;;
10116;SDS011;5098;48.792;9.012;2023-04-19T07:05:46;14.77;;;12.87;;
10116;SDS011;5098;48.792;9.012;2023-04-19T07:08:13;16.10;;;13.50;;
10116;SDS011;5098;48.792;9.012;2023-04-19T07:10:39;20.17;;;14.07;;
10116;SDS011;5098;48.792;9.012;2023-04-19T07:13:07;15.87;;;12.50;;
10116;SDS011;5098;48.792;9.012;2023-04-19T07:15:33;16.43;;;13.03;;
10116;SDS011;5098;48.792;9.012;2023-04-19T07:18:00;16.13;;;13.17;;
10116;SDS011;5098;48.792;9.012;2023-04-19T07:20:26;18.23;;;14.00;;
10116;SDS011;5098;48.792;9.012;2023-04-19T07:22:53;18.20;;;13.90;;
10116;SDS011;5098;48.792;9.012;2023-04-19T07:25:19;16.33;;;13.60;;
10116;SDS011;5098;48.792;9.012;2023-04-19T07:27:45;15.07;;;12.73;;
10116;SDS011;5098;48.792;9.012;2023-04-19T07:30:11;15.40;;;13.57;;
10116;SDS011;5098;48.792;9.012;2023-04-19T07:32:37;15.77;;;13.97;;
10116;SDS011;5098;48.792;9.012;2023-04-19T07:35:04;17.23;;;14.70;;
10116;SDS011;5098;48.792;9.012;2023-04-19T07:37:31;15.20;;;13.60;;
10116;SDS011;5098;48.792;9.012;2023-04-19T07:39:57;15.13;;;13.57;;
10116;SDS011;5098;48.792;9.012;2023-04-19T07:42:23;15.93;;;14.27;;
10116;SDS011;5098;48.792;9.012;2023-04-19T07:44:50;15.23;;;12.90;;
10116;SDS011;5098;48.792;9.012;2023-04-19T07:47:16;15.30;;;13.33;;
10116;SDS011;5098;48.792;9.012;2023-04-19T07:49:42;19.00;;;14.70;;
10116;SDS011;5098;48.792;9.012;2023-04-19T07:52:08;13.77;;;12.40;;
10116;SDS011;5098;48.792;9.012;2023-04-19T07:54:34;16.47;;;11.70;;
10116;SDS011;5098;48.792;9.012;2023-04-19T07:57:03;14.27;;;12.87;;
10116;SDS011;5098;48.792;9.012;2023-04-19T07:59:29;13.90;;;12.47;;
10116;SDS011;5098;48.792;9.012;2023-04-19T08:01:57;14.40;;;12.50;;
10116;SDS011;5098;48.792;9.012;2023-04-19T08:04:23;15.07;;;13.57;;
10116;SDS011;5098;48.792;9.012;2023-04-19T08:06:49;13.73;;;12.20;;
10116;SDS011;5098;48.792;9.012;2023-04-19T08:09:16;14.70;;;13.13;;
10116;SDS011;5098;48.792;9.012;2023-04-19T08:11:43;14.90;;;12.47;;
10116;SDS011;5098;48.792;9.012;2023-04-19T08:14:09;13.73;;;12.27;;
10116;SDS011;5098;48.792;9.012;2023-04-19T08:16:36;12.20;;;11.00;;
10116;SDS011;5098;48.792;9.012;2023-04-19T08:19:02;13.70;;;12.30;;
10116;SDS011;5098;48.792;9.012;2023-04-19T08:21:28;12.27;;;11.00;;
10116;SDS011;5098;48.792;9.012;2023-04-19T08:23:55;14.23;;;12.13;;
10116;SDS011;5098;48.792;9.012;2023-04-19T08:26:21;12.70;;;11.50;;
10116;SDS011;5098;48.792;9.012;2023-04-19T08:28:47;16.20;;;10.73;;
10116;SDS011;5098;48.792;9.012;2023-04-19T08:31:16;12.43;;;10.97;;
10116;SDS011;5098;48.792;9.012;2023-04-19T08:33:44;11.27;;;10.20;;
10116;SDS011;5098;48.792;9.012;2023-04-19T08:36:10;10.57;;;9.47;;
10116;SDS011;5098;48.792;9.012;2023-04-19T08:38:36;10.40;;;9.40;;
10116;SDS011;5098;48.792;9.012;2023-04-19T08:41:03;11.20;;;10.10;;
10116;SDS011;5098;48.792;9.012;2023-04-19T08:43:29;11.33;;;9.50;;
10116;SDS011;5098;48.792;9.012;2023-04-19T08:45:58;11.03;;;9.50;;
10116;SDS011;5098;48.792;9.012;2023-04-19T08:48:24;11.33;;;10.23;;
10116;SDS011;5098;48.792;9.012;2023-04-19T08:50:52;11.67;;;10.47;;
10116;SDS011;5098;48.792;9.012;2023-04-19T08:53:18;11.10;;;9.90;;
10116;SDS011;5098;48.792;9.012;2023-04-19T08:55:44;12.17;;;10.80;;
10116;SDS011;5098;48.792;9.012;2023-04-19T08:58:11;12.93;;;11.30;;
10116;SDS011;5098;48.792;9.012;2023-04-19T09:00:37;11.97;;;10.67;;
10116;SDS011;5098;48.792;9.012;2023-04-19T09:03:05;13.33;;;10.50;;
10116;SDS011;5098;48.792;9.012;2023-04-19T09:05:32;10.80;;;9.70;;
10116;SDS011;5098;48.792;9.012;2023-04-19T09:10:56;13.00;;;11.60;;
10116;SDS011;5098;48.792;9.012;2023-04-19T09:13:23;10.67;;;9.67;;
10116;SDS011;5098;48.792;9.012;2023-04-19T09:15:49;11.40;;;10.30;;
10116;SDS011;5098;48.792;9.012;2023-04-19T09:18:15;12.20;;;10.83;;
10116;SDS011;5098;48.792;9.012;2023-04-19T09:20:43;12.33;;;10.93;;
10116;SDS011;5098;48.792;9.012;2023-04-19T09:23:11;10.83;;;9.40;;
10116;SDS011;5098;48.792;9.012;2023-04-19T09:25:37;10.70;;;9.60;;
10116;SDS011;5098;48.792;9.012;2023-04-19T09:28:10;13.07;;;11.67;;
10116;SDS011;5098;48.792;9.012;2023-04-19T09:30:36;13.53;;;12.10;;
10116;SDS011;5098;48.792;9.012;2023-04-19T09:33:02;14.23;;;11.63;;
10116;SDS011;5098;48.792;9.012;2023-04-19T09:35:41;13.70;;;12.13;;
10116;SDS011;5098;48.792;9.012;2023-04-19T09:38:08;12.33;;;11.03;;
10116;SDS011;5098;48.792;9.012;2023-04-19T09:40:35;14.40;;;11.80;;
10116;SDS011;5098;48.792;9.012;2023-04-19T09:43:01;13.53;;;12.13;;
10116;SDS011;5098;48.792;9.012;2023-04-19T09:45:37;14.37;;;11.07;;
10116;SDS011;5098;48.792;9.012;2023-04-19T09:48:05;12.47;;;11.07;;
10116;SDS011;5098;48.792;9.012;2023-04-19T09:50:31;16.30;;;11.30;;
10116;SDS011;5098;48.792;9.012;2023-04-19T09:52:57;12.80;;;11.50;;
10116;SDS011;5098;48.792;9.012;2023-04-19T09:55:24;12.87;;;11.00;;
10116;SDS011;5098;48.792;9.012;2023-04-19T09:57:51;16.03;;;11.30;;
10116;SDS011;5098;48.792;9.012;2023-04-19T10:00:17;13.47;;;10.33;;
10116;SDS011;5098;48.792;9.012;2023-04-19T10:02:45;11.90;;;10.33;;
10116;SDS011;5098;48.792;9.012;2023-04-19T10:05:18;12.20;;;11.00;;
10116;SDS011;5098;48.792;9.012;2023-04-19T10:07:46;13.33;;;9.97;;
10116;SDS011;5098;48.792;9.012;2023-04-19T10:10:14;16.87;;;12.00;;
10116;SDS011;5098;48.792;9.012;2023-04-19T10:12:42;10.70;;;9.60;;
10116;SDS011;5098;48.792;9.012;2023-04-19T10:15:10;13.83;;;11.20;;
10116;SDS011;5098;48.792;9.012;2023-04-19T10:17:38;11.20;;;9.43;;
10116;SDS011;5098;48.792;9.012;2023-04-19T10:20:05;12.80;;;11.50;;
10116;SDS011;5098;48.792;9.012;2023-04-19T10:22:35;12.13;;;10.87;;
10116;SDS011;5098;48.792;9.012;2023-04-19T10:25:09;11.33;;;10.17;;
10116;SDS011;5098;48.792;9.012;2023-04-19T10:27:36;11.73;;;10.27;;
10116;SDS011;5098;48.792;9.012;2023-04-19T10:30:03;10.20;;;9.10;;
10116;SDS011;5098;48.792;9.012;2023-04-19T10:32:41;10.97;;;8.90;;
10116;SDS011;5098;48.792;9.012;2023-04-19T10:35:17;11.03;;;8.77;;
10116;SDS011;5098;48.792;9.012;2023-04-19T10:38:27;10.83;;;8.40;;
10116;SDS011;5098;48.792;9.012;2023-04-19T10:43:23;11.60;;;10.37;;
10116;SDS011;5098;48.792;9.012;2023-04-19T10:45:50;11.80;;;10.30;;
10116;SDS011;5098;48.792;9.012;2023-04-19T10:50:57;11.93;;;10.43;;
10116;SDS011;5098;48.792;9.012;2023-04-19T10:56:08;10.93;;;9.93;;
10116;SDS011;5098;48.792;9.012;2023-04-19T11:01:30;11.77;;;10.57;;
10116;SDS011;5098;48.792;9.012;2023-04-19T11:04:10;12.20;;;10.67;;
10116;SDS011;5098;48.792;9.012;2023-04-19T11:07:00;11.50;;;10.33;;
10116;SDS011;5098;48.792;9.012;2023-04-19T11:09:35;12.60;;;10.27;;
10116;SDS011;5098;48.792;9.012;2023-04-19T11:12:06;14.73;;;10.83;;
10116;SDS011;5098;48.792;9.012;2023-04-19T11:14:33;12.30;;;10.43;;
10116;SDS011;5098;48.792;9.012;2023-04-19T11:17:02;10.83;;;9.20;;
10116;SDS011;5098;48.792;9.012;2023-04-19T11:19:28;12.40;;;9.87;;
10116;SDS011;5098;48.792;9.012;2023-04-19T11:21:57;11.47;;;9.80;;
10116;SDS011;5098;48.792;9.012;2023-04-19T11:24:23;11.60;;;9.80;;
10116;SDS011;5098;48.792;9.012;2023-04-19T11:26:49;10.77;;;8.80;;
10116;SDS011;5098;48.792;9.012;2023-04-19T11:29:15;11.90;;;10.67;;
10116;SDS011;5098;48.792;9.012;2023-04-19T11:31:45;13.53;;;10.90;;
10116;SDS011;5098;48.792;9.012;2023-04-19T11:34:11;9.27;;;8.10;;
10116;SDS011;5098;48.792;9.012;2023-04-19T11:39:33;13.17;;;10.80;;
10116;SDS011;5098;48.792;9.012;2023-04-19T11:41:59;12.27;;;11.03;;
10116;SDS011;5098;48.792;9.012;2023-04-19T11:44:26;14.20;;;11.93;;
10116;SDS011;5098;48.792;9.012;2023-04-19T11:49:24;15.93;;;12.07;;
10116;SDS011;5098;48.792;9.012;2023-04-19T11:51:53;13.87;;;11.87;;
10116;SDS011;5098;48.792;9.012;2023-04-19T11:54:22;12.97;;;11.67;;
10116;SDS011;5098;48.792;9.012;2023-04-19T11:56:58;14.73;;;13.10;;
10116;SDS011;5098;48.792;9.012;2023-04-19T11:59:24;14.73;;;13.00;;
10116;SDS011;5098;48.792;9.012;2023-04-19T12:01:50;14.80;;;11.67;;
10116;SDS011;5098;48.792;9.012;2023-04-19T12:04:16;15.63;;;12.30;;
10116;SDS011;5098;48.792;9.012;2023-04-19T12:06:42;15.40;;;13.80;;
10116;SDS011;5098;48.792;9.012;2023-04-19T12:09:08;16.80;;;13.57;;
10116;SDS011;5098;48.792;9.012;2023-04-19T12:11:42;16.80;;;14.77;;
10116;SDS011;5098;48.792;9.012;2023-04-19T12:14:09;19.30;;;15.07;;
10116;SDS011;5098;48.792;9.012;2023-04-19T12:16:35;15.80;;;13.77;;
10116;SDS011;5098;48.792;9.012;2023-04-19T12:21:41;19.70;;;17.60;;
10116;SDS011;5098;48.792;9.012;2023-04-19T12:24:07;21.40;;;17.40;;
10116;SDS011;5098;48.792;9.012;2023-04-19T12:26:33;18.27;;;16.47;;
10116;SDS011;5098;48.792;9.012;2023-04-19T12:29:00;18.63;;;16.63;;
10116;SDS011;5098;48.792;9.012;2023-04-19T12:31:26;19.97;;;16.63;;
10116;SDS011;5098;48.792;9.012;2023-04-19T12:33:52;20.20;;;17.10;;
10116;SDS011;5098;48.792;9.012;2023-04-19T12:36:19;18.77;;;15.90;;
10116;SDS011;5098;48.792;9.012;2023-04-19T12:38:45;19.10;;;17.27;;
10116;SDS011;5098;48.792;9.012;2023-04-19T12:41:11;20.27;;;18.13;;
10116;SDS011;5098;48.792;9.012;2023-04-19T12:43:37;19.87;;;16.80;;
10116;SDS011;5098;48.792;9.012;2023-04-19T12:46:03;18.73;;;16.70;;
10116;SDS011;5098;48.792;9.012;2023-04-19T12:48:29;24.30;;;16.60;;
10116;SDS011;5098;48.792;9.012;2023-04-19T12:50:55;20.73;;;16.73;;
10116;SDS011;5098;48.792;9.012;2023-04-19T12:53:21;21.10;;;16.87;;
10116;SDS011;5098;48.792;9.012;2023-04-19T12:55:48;23.13;;;17.53;;
10116;SDS011;5098;48.792;9.012;2023-04-19T12:58:15;20.70;;;18.20;;
10116;SDS011;5098;48.792;9.012;2023-04-19T13:00:42;21.27;;;16.50;;
10116;SDS011;5098;48.792;9.012;2023-04-19T13:03:08;20.07;;;17.23;;
10116;SDS011;5098;48.792;9.012;2023-04-19T13:05:36;22.27;;;16.87;;
10116;SDS011;5098;48.792;9.012;2023-04-19T13:08:02;19.23;;;17.13;;
10116;SDS011;5098;48.792;9.012;2023-04-19T13:10:28;21.03;;;15.70;;
10116;SDS011;5098;48.792;9.012;2023-04-19T13:12:54;19.93;;;16.23;;
10116;SDS011;5098;48.792;9.012;2023-04-19T13:15:21;16.90;;;14.03;;
10116;SDS011;5098;48.792;9.012;2023-04-19T13:17:47;15.57;;;12.90;;
10116;SDS011;5098;48.792;9.012;2023-04-19T13:20:13;14.10;;;12.60;;
10116;SDS011;5098;48.792;9.012;2023-04-19T13:22:39;15.20;;;12.60;;
10116;SDS011;5098;48.792;9.012;2023-04-19T13:25:05;15.20;;;13.27;;
10116;SDS011;5098;48.792;9.012;2023-04-19T13:27:31;15.90;;;13.00;;
10116;SDS011;5098;48.792;9.012;2023-04-19T13:29:57;15.63;;;13.10;;
10116;SDS011;5098;48.792;9.012;2023-04-19T13:32:23;15.30;;;13.30;;
10116;SDS011;5098;48.792;9.012;2023-04-19T13:34:50;15.40;;;13.70;;
10116;SDS011;5098;48.792;9.012;2023-04-19T13:37:17;15.47;;;13.60;;
10116;SDS011;5098;48.792;9.012;2023-04-19T13:39:43;17.90;;;14.33;;
10116;SDS011;5098;48.792;9.012;2023-04-19T13:42:09;15.93;;;13.73;;
10116;SDS011;5098;48.792;9.012;2023-04-19T13:44:35;17.63;;;13.82;;
10116;SDS011;5098;48.792;9.012;2023-04-19T13:47:01;17.73;;;14.50;;
10116;SDS011;5098;48.792;9.012;2023-04-19T13:49:28;15.73;;;13.80;;
10116;SDS011;5098;48.792;9.012;2023-04-19T13:51:54;21.90;;;15.30;;
10116;SDS011;5098;48.792;9.012;2023-04-19T13:54:20;17.87;;;14.30;;
10116;SDS011;5098;48.792;9.012;2023-04-19T13:56:46;17.80;;;14.23;;
10116;SDS011;5098;48.792;9.012;2023-04-19T13:59:13;16.20;;;14.23;;
10116;SDS011;5098;48.792;9.012;2023-04-19T14:01:39;15.67;;;13.50;;
10116;SDS011;5098;48.792;9.012;2023-04-19T14:04:05;19.37;;;14.40;;
10116;SDS011;5098;48.792;9.012;2023-04-19T14:06:31;20.20;;;15.30;;
10116;SDS011;5098;48.792;9.012;2023-04-19T14:08:57;20.67;;;14.50;;
10116;SDS011;5098;48.792;9.012;2023-04-19T14:11:24;17.20;;;14.63;;
10116;SDS011;5098;48.792;9.012;2023-04-19T14:13:51;19.00;;;14.77;;
10116;SDS011;5098;48.792;9.012;2023-04-19T14:16:17;19.77;;;14.97;;
10116;SDS011;5098;48.792;9.012;2023-04-19T14:18:45;17.33;;;14.90;;
10116;SDS011;5098;48.792;9.012;2023-04-19T14:21:11;16.63;;;14.70;;
10116;SDS011;5098;48.792;9.012;2023-04-19T14:23:38;16.67;;;14.97;;
10116;SDS011;5098;48.792;9.012;2023-04-19T14:26:04;17.17;;;14.77;;
10116;SDS011;5098;48.792;9.012;2023-04-19T14:28:30;15.73;;;14.10;;
10116;SDS011;5098;48.792;9.012;2023-04-19T14:30:56;16.20;;;13.90;;
10116;SDS011;5098;48.792;9.012;2023-04-19T14:33:22;15.57;;;13.93;;
10116;SDS011;5098;48.792;9.012;2023-04-19T14:35:48;16.43;;;14.70;;
10116;SDS011;5098;48.792;9.012;2023-04-19T14:38:14;16.67;;;14.50;;
10116;SDS011;5098;48.792;9.012;2023-04-19T14:40:40;16.33;;;14.63;;
10116;SDS011;5098;48.792;9.012;2023-04-19T14:43:06;15.77;;;14.20;;
10116;SDS011;5098;48.792;9.012;2023-04-19T14:45:32;17.53;;;15.60;;
10116;SDS011;5098;48.792;9.012;2023-04-19T14:47:58;17.63;;;15.63;;
10116;SDS011;5098;48.792;9.012;2023-04-19T14:50:24;18.30;;;14.40;;
10116;SDS011;5098;48.792;9.012;2023-04-19T14:52:50;16.63;;;14.93;;
10116;SDS011;5098;48.792;9.012;2023-04-19T14:55:18;18.73;;;15.83;;